sensor_id;sensor_type;location;lat;lon;timestamp;pressure;altitude;pressure_sealevel;temperature;humidity
74778;BME280;63298;53.164;8.610;2022-09-09T00:13:18;100917.31;;;16.38;79.40
74778;BME280;63298;53.164;8.610;2022-09-09T00:15:22;100911.22;;;16.41;79.60
74778;BME280;63298;53.164;8.610;2022-09-09T00:17:56;100903.41;;;16.38;79.64
74778;BME280;63298;53.164;8.610;2022-09-09T00:20:48;100917.63;;;16.41;79.53
74778;BME280;63298;53.164;8.610;2022-09-09T00:23:33;100912.34;;;16.40;79.53
74778;BME280;63298;53.164;8.610;2022-09-09T00:26:11;100915.97;;;16.40;79.36
74778;BME280;63298;53.164;8.610;2022-09-09T00:31:26;100902.28;;;16.34;79.43
74778;BME280;63298;53.164;8.610;2022-09-09T00:33:53;100899.50;;;16.34;79.16
74778;BME280;63298;53.164;8.610;2022-09-09T00:36:21;100899.78;;;16.32;79.43
74778;BME280;63298;53.164;8.610;2022-09-09T00:38:51;100908.16;;;16.32;79.72
74778;BME280;63298;53.164;8.610;2022-09-09T00:43:56;100912.88;;;16.32;79.33
74778;BME280;63298;53.164;8.610;2022-09-09T00:55:12;100908.94;;;16.23;79.83
74778;BME280;63298;53.164;8.610;2022-09-09T00:57:31;100907.78;;;16.19;79.56
74778;BME280;63298;53.164;8.610;2022-09-09T01:00:17;100910.88;;;16.17;80.06
74778;BME280;63298;53.164;8.610;2022-09-09T01:05:52;100910.84;;;16.12;80.90
74778;BME280;63298;53.164;8.610;2022-09-09T01:11:12;100908.31;;;16.06;79.86
74778;BME280;63298;53.164;8.610;2022-09-09T01:13:41;100900.81;;;16.06;79.89
74778;BME280;63298;53.164;8.610;2022-09-09T01:16:09;100901.34;;;16.03;80.02
74778;BME280;63298;53.164;8.610;2022-09-09T01:18:43;100899.13;;;16.05;79.71
74778;BME280;63298;53.164;8.610;2022-09-09T01:21:26;100887.16;;;16.05;79.99
74778;BME280;63298;53.164;8.610;2022-09-09T01:26:37;100896.59;;;16.04;80.77
74778;BME280;63298;53.164;8.610;2022-09-09T01:29:08;100908.56;;;16.04;80.28
74778;BME280;63298;53.164;8.610;2022-09-09T01:31:56;100915.81;;;16.05;80.27
74778;BME280;63298;53.164;8.610;2022-09-09T01:34:24;100908.03;;;16.02;80.13
74778;BME280;63298;53.164;8.610;2022-09-09T01:37:06;100906.09;;;16.03;80.37
74778;BME280;63298;53.164;8.610;2022-09-09T01:39:34;100888.25;;;16.04;80.28
74778;BME280;63298;53.164;8.610;2022-09-09T01:42:01;100898.28;;;16.05;79.98
74778;BME280;63298;53.164;8.610;2022-09-09T01:44:27;100885.75;;;16.02;80.25
74778;BME280;63298;53.164;8.610;2022-09-09T01:46:53;100895.47;;;15.99;80.27
74778;BME280;63298;53.164;8.610;2022-09-09T01:49:19;100890.47;;;15.96;80.45
74778;BME280;63298;53.164;8.610;2022-09-09T01:51:48;100879.88;;;15.93;80.24
74778;BME280;63298;53.164;8.610;2022-09-09T01:54:14;100889.88;;;15.94;79.77
74778;BME280;63298;53.164;8.610;2022-09-09T01:59:45;100879.34;;;15.96;80.26
74778;BME280;63298;53.164;8.610;2022-09-09T02:02:18;100880.44;;;15.95;80.26
74778;BME280;63298;53.164;8.610;2022-09-09T02:04:48;100875.44;;;15.97;80.08
74778;BME280;63298;53.164;8.610;2022-09-09T02:07:43;100884.34;;;15.99;80.37
74778;BME280;63298;53.164;8.610;2022-09-09T02:10:24;100872.66;;;15.97;80.11
74778;BME280;63298;53.164;8.610;2022-09-09T02:13:04;100878.50;;;15.96;79.86
74778;BME280;63298;53.164;8.610;2022-09-09T02:15:46;100884.03;;;15.91;80.02
74778;BME280;63298;53.164;8.610;2022-09-09T02:18:13;100882.34;;;15.90;80.27
74778;BME280;63298;53.164;8.610;2022-09-09T02:20:41;100872.03;;;15.85;79.87
74778;BME280;63298;53.164;8.610;2022-09-09T02:23:09;100880.38;;;15.85;80.04
74778;BME280;63298;53.164;8.610;2022-09-09T02:25:37;100875.38;;;15.82;79.94
74778;BME280;63298;53.164;8.610;2022-09-09T02:28:05;100875.91;;;15.79;80.03
74778;BME280;63298;53.164;8.610;2022-09-09T02:30:33;100877.84;;;15.79;80.31
74778;BME280;63298;53.164;8.610;2022-09-09T02:33:01;100874.78;;;15.75;79.92
74778;BME280;63298;53.164;8.610;2022-09-09T02:35:29;100877.00;;;15.73;79.86
74778;BME280;63298;53.164;8.610;2022-09-09T02:37:59;100877.25;;;15.72;80.01
74778;BME280;63298;53.164;8.610;2022-09-09T02:40:26;100876.44;;;15.71;79.92
74778;BME280;63298;53.164;8.610;2022-09-09T02:42:54;100868.09;;;15.71;80.01
74778;BME280;63298;53.164;8.610;2022-09-09T02:45:23;100874.19;;;15.68;79.84
74778;BME280;63298;53.164;8.610;2022-09-09T02:50:37;100872.50;;;15.67;79.73
74778;BME280;63298;53.164;8.610;2022-09-09T02:53:14;100874.16;;;15.63;79.66
74778;BME280;63298;53.164;8.610;2022-09-09T02:55:46;100870.81;;;15.61;79.92
74778;BME280;63298;53.164;8.610;2022-09-09T02:58:15;100869.13;;;15.60;79.89
74778;BME280;63298;53.164;8.610;2022-09-09T03:00:43;100868.56;;;15.58;80.12
74778;BME280;63298;53.164;8.610;2022-09-09T03:03:09;100869.94;;;15.55;79.86
74778;BME280;63298;53.164;8.610;2022-09-09T03:05:35;100869.38;;;15.53;80.26
74778;BME280;63298;53.164;8.610;2022-09-09T03:08:00;100870.75;;;15.51;79.69
74778;BME280;63298;53.164;8.610;2022-09-09T03:10:26;100874.59;;;15.50;79.72
74778;BME280;63298;53.164;8.610;2022-09-09T03:12:51;100879.59;;;15.48;79.62
74778;BME280;63298;53.164;8.610;2022-09-09T03:15:17;100880.72;;;15.47;79.82
74778;BME280;63298;53.164;8.610;2022-09-09T03:17:43;100874.84;;;15.43;79.77
74778;BME280;63298;53.164;8.610;2022-09-09T03:20:08;100884.28;;;15.42;80.01
74778;BME280;63298;53.164;8.610;2022-09-09T03:22:34;100883.19;;;15.43;80.10
74778;BME280;63298;53.164;8.610;2022-09-09T03:25:00;100889.00;;;15.42;80.12
74778;BME280;63298;53.164;8.610;2022-09-09T03:27:25;100891.22;;;15.40;79.85
74778;BME280;63298;53.164;8.610;2022-09-09T03:29:50;100887.59;;;15.39;80.32
74778;BME280;63298;53.164;8.610;2022-09-09T03:32:16;100885.91;;;15.33;80.19
74778;BME280;63298;53.164;8.610;2022-09-09T03:34:41;100890.34;;;15.34;80.39
74778;BME280;63298;53.164;8.610;2022-09-09T03:37:07;100887.56;;;15.34;80.46
74778;BME280;63298;53.164;8.610;2022-09-09T03:39:32;100891.75;;;15.37;80.13
74778;BME280;63298;53.164;8.610;2022-09-09T03:41:57;100888.72;;;15.38;80.34
74778;BME280;63298;53.164;8.610;2022-09-09T03:44:23;100890.94;;;15.41;80.07
74778;BME280;63298;53.164;8.610;2022-09-09T03:46:48;100888.16;;;15.41;80.58
74778;BME280;63298;53.164;8.610;2022-09-09T03:49:13;100900.72;;;15.44;80.53
74778;BME280;63298;53.164;8.610;2022-09-09T03:51:39;100889.59;;;15.44;80.20
74778;BME280;63298;53.164;8.610;2022-09-09T03:54:04;100892.38;;;15.44;80.29
74778;BME280;63298;53.164;8.610;2022-09-09T03:56:30;100895.72;;;15.46;80.75
74778;BME280;63298;53.164;8.610;2022-09-09T03:58:56;100891.53;;;15.43;80.11
74778;BME280;63298;53.164;8.610;2022-09-09T04:01:21;100895.72;;;15.46;80.10
74778;BME280;63298;53.164;8.610;2022-09-09T04:03:46;100897.97;;;15.49;80.15
74778;BME280;63298;53.164;8.610;2022-09-09T04:06:12;100899.13;;;15.53;80.16
74778;BME280;63298;53.164;8.610;2022-09-09T04:08:38;100899.97;;;15.53;80.39
74778;BME280;63298;53.164;8.610;2022-09-09T04:11:03;100898.03;;;15.54;80.59
74778;BME280;63298;53.164;8.610;2022-09-09T04:13:28;100899.69;;;15.55;80.42
74778;BME280;63298;53.164;8.610;2022-09-09T04:15:56;100894.13;;;15.55;80.34
74778;BME280;63298;53.164;8.610;2022-09-09T04:18:22;100898.31;;;15.58;80.10
74778;BME280;63298;53.164;8.610;2022-09-09T04:20:49;100898.31;;;15.58;80.21
74778;BME280;63298;53.164;8.610;2022-09-09T04:23:14;100908.06;;;15.60;80.17
74778;BME280;63298;53.164;8.610;2022-09-09T04:25:51;100906.13;;;15.61;80.23
74778;BME280;63298;53.164;8.610;2022-09-09T04:28:18;100917.53;;;15.64;80.27
74778;BME280;63298;53.164;8.610;2022-09-09T04:30:45;100918.13;;;15.66;80.16
74778;BME280;63298;53.164;8.610;2022-09-09T04:33:12;100913.94;;;15.64;80.30
74778;BME280;63298;53.164;8.610;2022-09-09T04:35:37;100914.75;;;15.64;79.98
74778;BME280;63298;53.164;8.610;2022-09-09T04:38:04;100922.53;;;15.62;79.92
74778;BME280;63298;53.164;8.610;2022-09-09T04:40:30;100923.06;;;15.59;80.62
74778;BME280;63298;53.164;8.610;2022-09-09T04:43:01;100918.63;;;15.58;80.75
74778;BME280;63298;53.164;8.610;2022-09-09T04:45:26;100917.78;;;15.58;80.17
74778;BME280;63298;53.164;8.610;2022-09-09T04:47:52;100925.84;;;15.59;80.37
74778;BME280;63298;53.164;8.610;2022-09-09T04:50:18;100926.44;;;15.61;80.23
74778;BME280;63298;53.164;8.610;2022-09-09T04:52:44;100927.53;;;15.60;80.11
74778;BME280;63298;53.164;8.610;2022-09-09T04:55:09;100921.97;;;15.60;80.08
74778;BME280;63298;53.164;8.610;2022-09-09T04:57:34;100929.75;;;15.58;80.04
74778;BME280;63298;53.164;8.610;2022-09-09T04:59:59;100933.09;;;15.60;80.21
74778;BME280;63298;53.164;8.610;2022-09-09T05:02:26;100930.59;;;15.59;79.88
74778;BME280;63298;53.164;8.610;2022-09-09T05:04:51;100930.31;;;15.60;80.13
74778;BME280;63298;53.164;8.610;2022-09-09T05:07:17;100934.19;;;15.59;80.37
74778;BME280;63298;53.164;8.610;2022-09-09T05:09:42;100939.19;;;15.57;79.81
74778;BME280;63298;53.164;8.610;2022-09-09T05:12:07;100937.47;;;15.51;80.14
74778;BME280;63298;53.164;8.610;2022-09-09T05:14:32;100945.25;;;15.49;80.03
74778;BME280;63298;53.164;8.610;2022-09-09T05:16:58;100944.41;;;15.48;79.60
74778;BME280;63298;53.164;8.610;2022-09-09T05:19:23;100941.88;;;15.47;79.76
74778;BME280;63298;53.164;8.610;2022-09-09T05:21:48;100950.47;;;15.45;79.94
74778;BME280;63298;53.164;8.610;2022-09-09T05:24:14;100947.44;;;15.47;79.96
74778;BME280;63298;53.164;8.610;2022-09-09T05:26:39;100956.56;;;15.42;79.87
74778;BME280;63298;53.164;8.610;2022-09-09T05:29:04;100958.78;;;15.40;80.37
74778;BME280;63298;53.164;8.610;2022-09-09T05:31:30;100955.16;;;15.40;80.19
74778;BME280;63298;53.164;8.610;2022-09-09T05:33:56;100952.06;;;15.36;80.25
74778;BME280;63298;53.164;8.610;2022-09-09T05:36:22;100955.69;;;15.37;79.95
74778;BME280;63298;53.164;8.610;2022-09-09T05:38:48;100959.81;;;15.34;80.13
74778;BME280;63298;53.164;8.610;2022-09-09T05:41:13;100958.44;;;15.32;80.37
74778;BME280;63298;53.164;8.610;2022-09-09T05:43:39;100958.19;;;15.33;80.48
74778;BME280;63298;53.164;8.610;2022-09-09T05:46:09;100964.00;;;15.32;80.81
74778;BME280;63298;53.164;8.610;2022-09-09T05:48:37;100957.91;;;15.35;80.47
74778;BME280;63298;53.164;8.610;2022-09-09T05:51:04;100969.06;;;15.40;80.13
74778;BME280;63298;53.164;8.610;2022-09-09T05:53:31;100967.69;;;15.42;80.23
74778;BME280;63298;53.164;8.610;2022-09-09T05:56:14;100962.69;;;15.44;80.60
74778;BME280;63298;53.164;8.610;2022-09-09T05:58:40;100967.47;;;15.49;80.52
74778;BME280;63298;53.164;8.610;2022-09-09T06:01:07;100969.41;;;15.48;79.94
74778;BME280;63298;53.164;8.610;2022-09-09T06:03:37;100975.53;;;15.50;80.09
74778;BME280;63298;53.164;8.610;2022-09-09T06:06:08;100966.34;;;15.50;80.61
74778;BME280;63298;53.164;8.610;2022-09-09T06:08:35;100973.66;;;15.56;80.38
74778;BME280;63298;53.164;8.610;2022-09-09T06:11:03;100964.78;;;15.54;80.65
74778;BME280;63298;53.164;8.610;2022-09-09T06:13:29;100958.91;;;15.55;80.62
74778;BME280;63298;53.164;8.610;2022-09-09T06:15:55;100970.63;;;15.58;80.89
74778;BME280;63298;53.164;8.610;2022-09-09T06:18:20;100969.25;;;15.60;80.34
74778;BME280;63298;53.164;8.610;2022-09-09T06:21:00;100964.81;;;15.64;80.51
74778;BME280;63298;53.164;8.610;2022-09-09T06:23:27;100960.97;;;15.70;80.72
74778;BME280;63298;53.164;8.610;2022-09-09T06:28:28;100953.53;;;15.81;79.67
74778;BME280;63298;53.164;8.610;2022-09-09T06:30:58;100958.53;;;15.84;80.63
74778;BME280;63298;53.164;8.610;2022-09-09T06:33:24;100959.41;;;15.89;80.77
74778;BME280;63298;53.164;8.610;2022-09-09T06:35:53;100963.38;;;15.93;80.16
74778;BME280;63298;53.164;8.610;2022-09-09T06:38:19;100965.63;;;16.02;80.16
74778;BME280;63298;53.164;8.610;2022-09-09T06:40:54;100958.97;;;16.08;80.17
74778;BME280;63298;53.164;8.610;2022-09-09T06:43:19;100962.63;;;16.13;81.51
74778;BME280;63298;53.164;8.610;2022-09-09T06:45:53;100960.69;;;16.19;80.20
74778;BME280;63298;53.164;8.610;2022-09-09T06:48:18;100955.13;;;16.24;80.47
74778;BME280;63298;53.164;8.610;2022-09-09T06:50:43;100957.41;;;16.32;79.64
74778;BME280;63298;53.164;8.610;2022-09-09T06:53:09;100961.88;;;16.38;79.73
74778;BME280;63298;53.164;8.610;2022-09-09T06:55:34;100964.69;;;16.48;79.72
74778;BME280;63298;53.164;8.610;2022-09-09T06:57:59;100958.88;;;16.55;79.54
74778;BME280;63298;53.164;8.610;2022-09-09T07:00:24;100962.81;;;16.59;79.48
74778;BME280;63298;53.164;8.610;2022-09-09T07:02:50;100957.00;;;16.65;79.61
74778;BME280;63298;53.164;8.610;2022-09-09T07:05:16;100953.13;;;16.71;79.36
74778;BME280;63298;53.164;8.610;2022-09-09T07:07:41;100957.31;;;16.79;79.19
74778;BME280;63298;53.164;8.610;2022-09-09T07:10:07;100950.91;;;16.83;79.16
74778;BME280;63298;53.164;8.610;2022-09-09T07:12:32;100957.91;;;16.91;78.94
74778;BME280;63298;53.164;8.610;2022-09-09T07:14:57;100953.19;;;16.97;78.98
74778;BME280;63298;53.164;8.610;2022-09-09T07:17:23;100963.50;;;17.06;78.84
74778;BME280;63298;53.164;8.610;2022-09-09T07:19:48;100958.78;;;17.12;78.60
74778;BME280;63298;53.164;8.610;2022-09-09T07:22:13;100952.91;;;17.18;78.45
74778;BME280;63298;53.164;8.610;2022-09-09T07:24:39;100949.56;;;17.26;78.04
74778;BME280;63298;53.164;8.610;2022-09-09T07:27:04;100954.00;;;17.38;77.80
74778;BME280;63298;53.164;8.610;2022-09-09T07:29:29;100957.09;;;17.46;77.98
74778;BME280;63298;53.164;8.610;2022-09-09T07:31:55;100959.03;;;17.56;77.60
74778;BME280;63298;53.164;8.610;2022-09-09T07:34:20;100967.13;;;17.62;77.38
74778;BME280;63298;53.164;8.610;2022-09-09T07:36:45;100962.66;;;17.72;77.27
74778;BME280;63298;53.164;8.610;2022-09-09T07:39:13;100969.38;;;17.81;77.26
74778;BME280;63298;53.164;8.610;2022-09-09T07:41:41;100967.94;;;17.88;76.92
74778;BME280;63298;53.164;8.610;2022-09-09T07:44:12;100964.28;;;17.98;76.74
74778;BME280;63298;53.164;8.610;2022-09-09T07:46:39;100972.91;;;18.06;76.74
74778;BME280;63298;53.164;8.610;2022-09-09T07:49:04;100967.59;;;18.15;76.57
74778;BME280;63298;53.164;8.610;2022-09-09T07:51:35;100973.16;;;18.25;76.54
74778;BME280;63298;53.164;8.610;2022-09-09T07:54:05;100966.97;;;18.33;76.10
74778;BME280;63298;53.164;8.610;2022-09-09T07:56:32;100975.84;;;18.45;76.26
74778;BME280;63298;53.164;8.610;2022-09-09T07:58:58;100970.53;;;18.49;75.80
74778;BME280;63298;53.164;8.610;2022-09-09T08:01:45;100973.03;;;18.55;75.61
74778;BME280;63298;53.164;8.610;2022-09-09T08:04:14;100972.97;;;18.66;75.41
74778;BME280;63298;53.164;8.610;2022-09-09T08:06:41;100969.56;;;18.79;75.36
74778;BME280;63298;53.164;8.610;2022-09-09T08:09:08;100973.91;;;18.95;74.92
74778;BME280;63298;53.164;8.610;2022-09-09T08:11:34;100974.69;;;19.06;74.77
74778;BME280;63298;53.164;8.610;2022-09-09T08:13:59;100972.66;;;19.16;74.87
74778;BME280;63298;53.164;8.610;2022-09-09T08:16:31;100967.00;;;19.26;74.61
74778;BME280;63298;53.164;8.610;2022-09-09T08:18:57;100970.31;;;19.33;74.63
74778;BME280;63298;53.164;8.610;2022-09-09T08:21:28;100968.31;;;19.34;73.91
74778;BME280;63298;53.164;8.610;2022-09-09T08:23:55;100961.31;;;19.36;74.00
74778;BME280;63298;53.164;8.610;2022-09-09T08:26:23;100964.06;;;19.41;73.72
74778;BME280;63298;53.164;8.610;2022-09-09T08:28:50;100961.53;;;19.45;73.90
74778;BME280;63298;53.164;8.610;2022-09-09T08:31:19;100972.13;;;19.53;73.67
74778;BME280;63298;53.164;8.610;2022-09-09T08:33:44;100962.25;;;19.61;73.48
74778;BME280;63298;53.164;8.610;2022-09-09T08:36:11;100966.63;;;19.72;73.33
74778;BME280;63298;53.164;8.610;2022-09-09T08:38:37;100977.78;;;19.77;73.01
74778;BME280;63298;53.164;8.610;2022-09-09T08:43:46;100980.88;;;19.75;72.70
74778;BME280;63298;53.164;8.610;2022-09-09T08:46:30;100985.63;;;19.75;72.21
74778;BME280;63298;53.164;8.610;2022-09-09T08:49:07;100979.44;;;19.78;72.11
74778;BME280;63298;53.164;8.610;2022-09-09T08:51:36;100983.56;;;19.86;72.09
74778;BME280;63298;53.164;8.610;2022-09-09T08:54:02;100977.06;;;19.90;72.19
74778;BME280;63298;53.164;8.610;2022-09-09T08:56:31;100979.28;;;19.93;71.94
74778;BME280;63298;53.164;8.610;2022-09-09T08:59:00;100985.38;;;20.00;71.65
74778;BME280;63298;53.164;8.610;2022-09-09T09:01:46;100981.84;;;20.13;71.40
74778;BME280;63298;53.164;8.610;2022-09-09T09:09:52;100990.84;;;20.39;71.00
74778;BME280;63298;53.164;8.610;2022-09-09T09:12:24;100988.59;;;20.41;71.25
74778;BME280;63298;53.164;8.610;2022-09-09T09:14:50;100982.13;;;20.41;70.91
74778;BME280;63298;53.164;8.610;2022-09-09T09:17:17;100991.72;;;20.35;70.66
74778;BME280;63298;53.164;8.610;2022-09-09T09:19:43;100993.47;;;20.31;70.44
74778;BME280;63298;53.164;8.610;2022-09-09T09:24:56;100991.38;;;20.41;69.83
74778;BME280;63298;53.164;8.610;2022-09-09T09:27:36;100994.41;;;20.45;69.16
74778;BME280;63298;53.164;8.610;2022-09-09T09:32:47;100982.91;;;20.46;69.21
74778;BME280;63298;53.164;8.610;2022-09-09T09:35:15;100994.34;;;20.50;69.71
74778;BME280;63298;53.164;8.610;2022-09-09T09:37:41;100996.47;;;20.58;69.27
74778;BME280;63298;53.164;8.610;2022-09-09T09:40:16;100997.56;;;20.62;66.75
74778;BME280;63298;53.164;8.610;2022-09-09T09:42:59;100988.00;;;20.63;67.63
74778;BME280;63298;53.164;8.610;2022-09-09T09:48:04;100989.63;;;20.88;68.08
74778;BME280;63298;53.164;8.610;2022-09-09T09:50:30;101000.41;;;20.99;68.76
74778;BME280;63298;53.164;8.610;2022-09-09T09:53:01;100988.41;;;21.12;67.30
74778;BME280;63298;53.164;8.610;2022-09-09T09:55:30;100983.38;;;21.15;66.11
74778;BME280;63298;53.164;8.610;2022-09-09T09:58:05;100993.41;;;21.21;66.25
74778;BME280;63298;53.164;8.610;2022-09-09T10:00:32;100983.22;;;21.25;67.71
74778;BME280;63298;53.164;8.610;2022-09-09T10:02:59;100989.09;;;21.42;66.94
74778;BME280;63298;53.164;8.610;2022-09-09T10:05:28;100982.94;;;21.59;67.06
74778;BME280;63298;53.164;8.610;2022-09-09T10:08:16;100978.94;;;21.78;64.33
74778;BME280;63298;53.164;8.610;2022-09-09T10:10:50;100976.16;;;21.92;65.67
74778;BME280;63298;53.164;8.610;2022-09-09T10:27:50;100980.63;;;21.79;65.28
74778;BME280;63298;53.164;8.610;2022-09-09T10:30:19;100977.28;;;21.91;64.27
74778;BME280;63298;53.164;8.610;2022-09-09T10:33:09;100976.97;;;21.92;63.01
74778;BME280;63298;53.164;8.610;2022-09-09T10:54:37;100980.38;;;22.08;62.18
74778;BME280;63298;53.164;8.610;2022-09-09T10:57:37;100973.19;;;22.16;62.76
74778;BME280;63298;53.164;8.610;2022-09-09T11:00:05;100977.38;;;22.32;63.98
74778;BME280;63298;53.164;8.610;2022-09-09T11:02:33;100976.94;;;22.52;63.32
74778;BME280;63298;53.164;8.610;2022-09-09T11:07:46;100978.81;;;22.57;61.54
74778;BME280;63298;53.164;8.610;2022-09-09T11:10:45;100976.00;;;22.57;62.00
74778;BME280;63298;53.164;8.610;2022-09-09T11:13:17;100976.94;;;22.52;62.88
74778;BME280;63298;53.164;8.610;2022-09-09T11:15:49;100987.47;;;22.47;61.69
74778;BME280;63298;53.164;8.610;2022-09-09T11:18:21;100982.56;;;22.52;62.80
74778;BME280;63298;53.164;8.610;2022-09-09T11:20:49;100983.22;;;22.49;63.40
74778;BME280;63298;53.164;8.610;2022-09-09T11:23:25;100988.50;;;22.37;63.84
74778;BME280;63298;53.164;8.610;2022-09-09T11:25:55;100989.34;;;22.37;64.27
74778;BME280;63298;53.164;8.610;2022-09-09T11:34:00;100989.97;;;22.34;64.73
74778;BME280;63298;53.164;8.610;2022-09-09T11:41:42;100978.41;;;22.63;64.44
74778;BME280;63298;53.164;8.610;2022-09-09T11:44:12;100977.53;;;22.90;60.85
74778;BME280;63298;53.164;8.610;2022-09-09T11:46:41;100977.25;;;23.14;63.25
74778;BME280;63298;53.164;8.610;2022-09-09T11:49:26;100975.94;;;23.34;61.86
74778;BME280;63298;53.164;8.610;2022-09-09T11:51:52;100971.66;;;23.36;61.49
74778;BME280;63298;53.164;8.610;2022-09-09T11:56:53;100975.38;;;23.23;61.68
74778;BME280;63298;53.164;8.610;2022-09-09T11:59:28;100977.59;;;23.12;60.13
74778;BME280;63298;53.164;8.610;2022-09-09T12:02:12;100979.09;;;22.96;60.25
74778;BME280;63298;53.164;8.610;2022-09-09T12:04:47;100984.34;;;22.75;60.91
74778;BME280;63298;53.164;8.610;2022-09-09T12:09:57;100987.38;;;22.38;61.71
74778;BME280;63298;53.164;8.610;2022-09-09T12:12:27;100975.91;;;22.21;62.23
74778;BME280;63298;53.164;8.610;2022-09-09T12:17:27;100987.44;;;22.06;62.73
74778;BME280;63298;53.164;8.610;2022-09-09T12:30:41;100997.47;;;21.79;63.24
74778;BME280;63298;53.164;8.610;2022-09-09T12:33:16;101003.25;;;21.69;64.62
74778;BME280;63298;53.164;8.610;2022-09-09T12:35:44;100999.50;;;21.60;64.60
74778;BME280;63298;53.164;8.610;2022-09-09T12:38:36;100991.06;;;21.41;66.35
74778;BME280;63298;53.164;8.610;2022-09-09T12:41:02;100995.03;;;21.22;66.38
74778;BME280;63298;53.164;8.610;2022-09-09T12:43:28;100996.41;;;21.05;66.91
74778;BME280;63298;53.164;8.610;2022-09-09T12:45:57;100996.91;;;20.89;67.24
74778;BME280;63298;53.164;8.610;2022-09-09T12:48:28;100995.22;;;20.69;67.65
74778;BME280;63298;53.164;8.610;2022-09-09T12:50:55;100989.53;;;20.55;67.89
74778;BME280;63298;53.164;8.610;2022-09-09T12:53:36;100993.81;;;20.48;68.18
74778;BME280;63298;53.164;8.610;2022-09-09T12:56:05;100983.81;;;20.42;68.11
74778;BME280;63298;53.164;8.610;2022-09-09T12:58:31;100982.97;;;20.41;68.36
74778;BME280;63298;53.164;8.610;2022-09-09T13:00:57;100995.09;;;20.37;68.41
74778;BME280;63298;53.164;8.610;2022-09-09T13:03:23;100993.41;;;20.36;68.73
74778;BME280;63298;53.164;8.610;2022-09-09T13:05:49;101007.44;;;20.36;68.66
74778;BME280;63298;53.164;8.610;2022-09-09T13:08:16;101005.13;;;20.38;68.91
74778;BME280;63298;53.164;8.610;2022-09-09T13:13:20;100997.81;;;20.42;69.07
74778;BME280;63298;53.164;8.610;2022-09-09T13:15:51;101011.22;;;20.45;68.87
74778;BME280;63298;53.164;8.610;2022-09-09T13:18:22;101008.97;;;20.47;68.71
74778;BME280;63298;53.164;8.610;2022-09-09T13:20:49;101014.81;;;20.50;68.71
74778;BME280;63298;53.164;8.610;2022-09-09T13:23:16;101004.44;;;20.51;68.98
74778;BME280;63298;53.164;8.610;2022-09-09T13:25:53;101017.69;;;20.45;69.48
74778;BME280;63298;53.164;8.610;2022-09-09T13:28:25;101008.00;;;20.33;68.27
74778;BME280;63298;53.164;8.610;2022-09-09T13:31:20;100998.66;;;20.13;68.70
74778;BME280;63298;53.164;8.610;2022-09-09T13:33:46;100991.53;;;20.02;68.52
74778;BME280;63298;53.164;8.610;2022-09-09T13:36:12;100994.44;;;19.92;68.81
74778;BME280;63298;53.164;8.610;2022-09-09T13:38:52;101002.94;;;19.82;69.07
74778;BME280;63298;53.164;8.610;2022-09-09T13:41:22;101001.00;;;19.77;69.21
74778;BME280;63298;53.164;8.610;2022-09-09T13:43:48;101010.78;;;19.80;69.35
74778;BME280;63298;53.164;8.610;2022-09-09T13:49:20;101015.94;;;19.68;69.87
74778;BME280;63298;53.164;8.610;2022-09-09T13:51:48;101010.88;;;19.70;70.09
74778;BME280;63298;53.164;8.610;2022-09-09T13:54:16;101006.38;;;19.69;70.44
74778;BME280;63298;53.164;8.610;2022-09-09T13:56:42;101000.03;;;19.63;70.87
74778;BME280;63298;53.164;8.610;2022-09-09T13:59:16;101003.44;;;19.55;71.53
74778;BME280;63298;53.164;8.610;2022-09-09T14:01:42;101004.28;;;19.56;70.76
74778;BME280;63298;53.164;8.610;2022-09-09T14:04:08;101004.28;;;19.56;71.36
74778;BME280;63298;53.164;8.610;2022-09-09T14:06:34;101007.69;;;19.53;71.32
74778;BME280;63298;53.164;8.610;2022-09-09T14:09:00;101018.00;;;19.57;71.32
74778;BME280;63298;53.164;8.610;2022-09-09T14:11:25;101024.91;;;19.65;71.60
74778;BME280;63298;53.164;8.610;2022-09-09T14:13:51;101030.19;;;19.71;71.35
74778;BME280;63298;53.164;8.610;2022-09-09T14:16:17;101018.69;;;19.73;71.62
74778;BME280;63298;53.164;8.610;2022-09-09T14:18:43;101013.97;;;19.68;71.75
74778;BME280;63298;53.164;8.610;2022-09-09T14:21:08;101009.75;;;19.71;71.87
74778;BME280;63298;53.164;8.610;2022-09-09T14:23:33;101002.13;;;19.76;71.85
74778;BME280;63298;53.164;8.610;2022-09-09T14:25:59;101015.53;;;19.79;72.34
74778;BME280;63298;53.164;8.610;2022-09-09T14:28:24;101005.78;;;19.77;72.42
74778;BME280;63298;53.164;8.610;2022-09-09T14:30:49;101004.69;;;19.73;72.52
74778;BME280;63298;53.164;8.610;2022-09-09T14:33:15;101002.78;;;19.68;72.96
74778;BME280;63298;53.164;8.610;2022-09-09T14:35:41;100998.59;;;19.66;72.85
74778;BME280;63298;53.164;8.610;2022-09-09T14:38:08;100995.25;;;19.64;73.36
74778;BME280;63298;53.164;8.610;2022-09-09T14:40:36;100993.03;;;19.61;73.26
74778;BME280;63298;53.164;8.610;2022-09-09T14:43:01;100991.91;;;19.62;73.62
74778;BME280;63298;53.164;8.610;2022-09-09T14:45:27;100991.13;;;19.56;74.29
74778;BME280;63298;53.164;8.610;2022-09-09T14:47:53;100987.53;;;19.51;74.60
74778;BME280;63298;53.164;8.610;2022-09-09T14:50:19;100980.81;;;19.52;73.91
74778;BME280;63298;53.164;8.610;2022-09-09T14:52:45;100975.72;;;19.54;74.21
74778;BME280;63298;53.164;8.610;2022-09-09T14:55:11;100974.94;;;19.53;74.29
74778;BME280;63298;53.164;8.610;2022-09-09T14:57:36;100975.22;;;19.52;74.64
74778;BME280;63298;53.164;8.610;2022-09-09T15:00:05;100976.34;;;19.51;74.80
74778;BME280;63298;53.164;8.610;2022-09-09T15:02:30;100968.22;;;19.49;74.85
74778;BME280;63298;53.164;8.610;2022-09-09T15:04:55;100969.63;;;19.52;74.76
74778;BME280;63298;53.164;8.610;2022-09-09T15:07:20;100972.41;;;19.52;75.15
74778;BME280;63298;53.164;8.610;2022-09-09T15:09:46;100968.19;;;19.54;75.26